This is the latest recevied weather packets stored in our database for station/object VA7NEZ. If no packets are shown the sender has not sent any weather packets the latest 1 day(s).
| Time | Temp. | Humidity | Pressure | Rain* | Wind** | Luminosity | Snow |
|---|---|---|---|---|---|---|---|
| 1778001462 | 17.78° C | 41% | 1015 hPa | 0 mm | 0.45 m/s, 310° | - | - |
| 1778000366 | 17.22° C | 43% | 1015.2 hPa | 0 mm | 0 m/s | - | - |
| 1777999227 | 16.67° C | 45% | 1015.2 hPa | 0 mm | 0.89 m/s, 303° | - | - |
| 1777998712 | 16.67° C | 45% | 1015.1 hPa | 0 mm | 0 m/s | - | - |
| 1777998142 | 16.11° C | 46% | 1015.3 hPa | 0 mm | 0 m/s | - | - |
| 1777997541 | 15.56° C | 47% | 1015.2 hPa | 0 mm | 0 m/s | - | - |
| 1777996481 | 0° C | 100% | 1015.3 hPa | 0 mm | 0 m/s | - | - |
| 1777995882 | 14.44° C | 48% | 1015.2 hPa | 0 mm | 0 m/s | - | - |
| 1777995286 | 13.89° C | 49% | 1015.1 hPa | 0 mm | 0 m/s | - | - |
| 1777994743 | 13.33° C | 51% | 1015.2 hPa | 0 mm | 0 m/s | - | - |
| 1777993652 | 12.78° C | 55% | 1015.3 hPa | 0 mm | 0 m/s | - | - |
| 1777993122 | 12.22° C | 57% | 1015.2 hPa | 0 mm | 0 m/s | - | - |
| 1777992587 | 11.67° C | 60% | 1015.2 hPa | 0 mm | 0 m/s | - | - |
| 1777991455 | 10.56° C | 64% | 1015.1 hPa | 0 mm | 0 m/s | - | - |
| 1777990937 | 10° C | 66% | 1015.1 hPa | 0 mm | 0 m/s | - | - |
| 1777990427 | 10° C | 68% | 1015.1 hPa | 0 mm | 0 m/s | - | - |
| 1777989862 | 9.44° C | 69% | 1015 hPa | 0 mm | 0 m/s | - | - |
| 1777989361 | 8.89° C | 71% | 1015 hPa | 0 mm | 0 m/s | - | - |
| 1777988239 | 7.78° C | 70% | 1014.7 hPa | 0 mm | 0 m/s | - | - |
| 1777987743 | 7.78° C | 70% | 1014.5 hPa | 0 mm | 0 m/s | - | - |
| 1777987149 | 7.78° C | 70% | 1014.3 hPa | 0 mm | 0 m/s | - | - |
| 1777986567 | 7.22° C | 70% | 1014.3 hPa | 0 mm | 0 m/s | - | - |
| 1777985998 | 7.22° C | 70% | 1014.2 hPa | 0 mm | 0 m/s | - | - |
| 1777985406 | 7.22° C | 70% | 1014 hPa | 0 mm | 0 m/s | - | - |
| 1777984838 | 7.22° C | 70% | 1014.1 hPa | 0 mm | 0 m/s | - | - |
* Rain latest hour (hover to see other rain measurements)
** Current wind speed in m/s (hover to see current wind gust speed)